sensor_id;sensor_type;location;lat;lon;timestamp;P1;durP1;ratioP1;P2;durP2;ratioP2
46815;SDS011;32787;53.316;8.670;2023-04-08T00:00:33;27.25;;;16.25;;
46815;SDS011;32787;53.316;8.670;2023-04-08T00:03:00;26.20;;;15.65;;
46815;SDS011;32787;53.316;8.670;2023-04-08T00:05:26;27.05;;;15.98;;
46815;SDS011;32787;53.316;8.670;2023-04-08T00:07:52;23.98;;;15.00;;
46815;SDS011;32787;53.316;8.670;2023-04-08T00:10:17;27.80;;;15.32;;
46815;SDS011;32787;53.316;8.670;2023-04-08T00:12:43;24.25;;;13.80;;
46815;SDS011;32787;53.316;8.670;2023-04-08T00:15:09;28.95;;;14.38;;
46815;SDS011;32787;53.316;8.670;2023-04-08T00:17:35;23.17;;;14.48;;
46815;SDS011;32787;53.316;8.670;2023-04-08T00:20:01;22.45;;;14.00;;
46815;SDS011;32787;53.316;8.670;2023-04-08T00:22:27;25.23;;;14.77;;
46815;SDS011;32787;53.316;8.670;2023-04-08T00:24:52;25.02;;;15.18;;
46815;SDS011;32787;53.316;8.670;2023-04-08T00:27:18;24.30;;;14.35;;
46815;SDS011;32787;53.316;8.670;2023-04-08T00:29:43;23.15;;;13.70;;
46815;SDS011;32787;53.316;8.670;2023-04-08T00:32:09;20.30;;;12.90;;
46815;SDS011;32787;53.316;8.670;2023-04-08T00:34:35;21.80;;;13.55;;
46815;SDS011;32787;53.316;8.670;2023-04-08T00:37:01;24.05;;;13.45;;
46815;SDS011;32787;53.316;8.670;2023-04-08T00:39:27;20.40;;;12.00;;
46815;SDS011;32787;53.316;8.670;2023-04-08T00:41:52;21.35;;;12.75;;
46815;SDS011;32787;53.316;8.670;2023-04-08T00:44:18;22.23;;;12.45;;
46815;SDS011;32787;53.316;8.670;2023-04-08T00:46:44;20.20;;;12.60;;
46815;SDS011;32787;53.316;8.670;2023-04-08T00:49:10;21.30;;;13.35;;
46815;SDS011;32787;53.316;8.670;2023-04-08T00:51:36;20.92;;;12.15;;
46815;SDS011;32787;53.316;8.670;2023-04-08T00:54:02;19.67;;;11.68;;
46815;SDS011;32787;53.316;8.670;2023-04-08T00:56:31;21.97;;;11.87;;
46815;SDS011;32787;53.316;8.670;2023-04-08T00:58:59;20.83;;;12.35;;
46815;SDS011;32787;53.316;8.670;2023-04-08T01:01:27;20.20;;;12.23;;
46815;SDS011;32787;53.316;8.670;2023-04-08T01:07:12;19.40;;;11.52;;
46815;SDS011;32787;53.316;8.670;2023-04-08T01:09:51;19.33;;;11.13;;
46815;SDS011;32787;53.316;8.670;2023-04-08T01:12:26;21.08;;;11.52;;
46815;SDS011;32787;53.316;8.670;2023-04-08T01:15:04;20.35;;;10.80;;
46815;SDS011;32787;53.316;8.670;2023-04-08T01:17:31;20.77;;;11.52;;
46815;SDS011;32787;53.316;8.670;2023-04-08T01:19:59;20.30;;;11.70;;
46815;SDS011;32787;53.316;8.670;2023-04-08T01:25:01;21.23;;;11.93;;
46815;SDS011;32787;53.316;8.670;2023-04-08T01:27:30;21.50;;;12.38;;
46815;SDS011;32787;53.316;8.670;2023-04-08T01:29:57;22.65;;;12.05;;
46815;SDS011;32787;53.316;8.670;2023-04-08T01:32:25;23.67;;;13.15;;
46815;SDS011;32787;53.316;8.670;2023-04-08T01:34:51;25.05;;;13.25;;
46815;SDS011;32787;53.316;8.670;2023-04-08T01:37:19;24.67;;;14.00;;
46815;SDS011;32787;53.316;8.670;2023-04-08T01:39:46;27.10;;;14.20;;
46815;SDS011;32787;53.316;8.670;2023-04-08T01:42:13;25.00;;;14.23;;
46815;SDS011;32787;53.316;8.670;2023-04-08T01:44:40;28.42;;;14.70;;
46815;SDS011;32787;53.316;8.670;2023-04-08T01:47:08;25.45;;;14.50;;
46815;SDS011;32787;53.316;8.670;2023-04-08T01:49:34;29.83;;;15.98;;
46815;SDS011;32787;53.316;8.670;2023-04-08T01:52:01;27.38;;;14.45;;
46815;SDS011;32787;53.316;8.670;2023-04-08T01:54:29;29.60;;;15.82;;
46815;SDS011;32787;53.316;8.670;2023-04-08T01:56:54;31.42;;;16.63;;
46815;SDS011;32787;53.316;8.670;2023-04-08T01:59:23;28.52;;;15.50;;
46815;SDS011;32787;53.316;8.670;2023-04-08T02:01:55;33.17;;;16.50;;
46815;SDS011;32787;53.316;8.670;2023-04-08T02:04:21;29.83;;;15.75;;
46815;SDS011;32787;53.316;8.670;2023-04-08T02:06:47;32.45;;;17.13;;
46815;SDS011;32787;53.316;8.670;2023-04-08T02:09:13;33.53;;;17.80;;
46815;SDS011;32787;53.316;8.670;2023-04-08T02:11:38;30.45;;;16.63;;
46815;SDS011;32787;53.316;8.670;2023-04-08T02:14:04;31.08;;;17.42;;
46815;SDS011;32787;53.316;8.670;2023-04-08T02:16:32;33.83;;;16.58;;
46815;SDS011;32787;53.316;8.670;2023-04-08T02:19:01;32.85;;;16.60;;
46815;SDS011;32787;53.316;8.670;2023-04-08T02:21:34;31.60;;;16.50;;
46815;SDS011;32787;53.316;8.670;2023-04-08T02:24:05;34.33;;;16.38;;
46815;SDS011;32787;53.316;8.670;2023-04-08T02:26:33;30.65;;;17.25;;
46815;SDS011;32787;53.316;8.670;2023-04-08T02:29:01;33.63;;;16.13;;
46815;SDS011;32787;53.316;8.670;2023-04-08T02:31:28;31.60;;;16.45;;
46815;SDS011;32787;53.316;8.670;2023-04-08T02:33:53;29.77;;;15.85;;
46815;SDS011;32787;53.316;8.670;2023-04-08T02:36:21;28.25;;;16.60;;
46815;SDS011;32787;53.316;8.670;2023-04-08T02:38:50;35.47;;;17.45;;
46815;SDS011;32787;53.316;8.670;2023-04-08T02:41:16;28.80;;;15.70;;
46815;SDS011;32787;53.316;8.670;2023-04-08T02:43:41;29.80;;;16.63;;
46815;SDS011;32787;53.316;8.670;2023-04-08T02:46:07;30.98;;;16.17;;
46815;SDS011;32787;53.316;8.670;2023-04-08T02:48:34;28.75;;;16.25;;
46815;SDS011;32787;53.316;8.670;2023-04-08T02:51:00;29.63;;;16.10;;
46815;SDS011;32787;53.316;8.670;2023-04-08T02:53:26;29.30;;;16.45;;
46815;SDS011;32787;53.316;8.670;2023-04-08T02:55:52;28.45;;;15.73;;
46815;SDS011;32787;53.316;8.670;2023-04-08T02:58:17;30.60;;;16.67;;
46815;SDS011;32787;53.316;8.670;2023-04-08T03:00:43;31.02;;;16.13;;
46815;SDS011;32787;53.316;8.670;2023-04-08T03:03:09;30.73;;;15.85;;
46815;SDS011;32787;53.316;8.670;2023-04-08T03:05:35;29.42;;;16.08;;
46815;SDS011;32787;53.316;8.670;2023-04-08T03:08:00;31.02;;;16.15;;
46815;SDS011;32787;53.316;8.670;2023-04-08T03:10:26;27.30;;;15.55;;
46815;SDS011;32787;53.316;8.670;2023-04-08T03:12:52;31.42;;;15.55;;
46815;SDS011;32787;53.316;8.670;2023-04-08T03:15:17;31.75;;;15.45;;
46815;SDS011;32787;53.316;8.670;2023-04-08T03:17:43;30.67;;;16.55;;
46815;SDS011;32787;53.316;8.670;2023-04-08T03:20:09;37.88;;;16.48;;
46815;SDS011;32787;53.316;8.670;2023-04-08T03:22:35;29.10;;;14.63;;
46815;SDS011;32787;53.316;8.670;2023-04-08T03:25:01;27.08;;;15.13;;
46815;SDS011;32787;53.316;8.670;2023-04-08T03:27:27;25.88;;;14.02;;
46815;SDS011;32787;53.316;8.670;2023-04-08T03:29:53;28.42;;;15.35;;
46815;SDS011;32787;53.316;8.670;2023-04-08T03:32:18;26.05;;;13.82;;
46815;SDS011;32787;53.316;8.670;2023-04-08T03:34:44;25.45;;;14.23;;
46815;SDS011;32787;53.316;8.670;2023-04-08T03:37:10;26.48;;;14.10;;
46815;SDS011;32787;53.316;8.670;2023-04-08T03:39:36;23.95;;;13.82;;
46815;SDS011;32787;53.316;8.670;2023-04-08T03:42:02;27.60;;;14.40;;
46815;SDS011;32787;53.316;8.670;2023-04-08T03:44:28;25.98;;;14.45;;
46815;SDS011;32787;53.316;8.670;2023-04-08T03:46:53;25.92;;;14.15;;
46815;SDS011;32787;53.316;8.670;2023-04-08T03:49:19;27.10;;;13.93;;
46815;SDS011;32787;53.316;8.670;2023-04-08T03:51:44;27.38;;;13.88;;
46815;SDS011;32787;53.316;8.670;2023-04-08T03:54:10;28.77;;;15.23;;
46815;SDS011;32787;53.316;8.670;2023-04-08T03:56:36;28.45;;;15.35;;
46815;SDS011;32787;53.316;8.670;2023-04-08T03:59:01;25.98;;;14.45;;
46815;SDS011;32787;53.316;8.670;2023-04-08T04:01:27;25.80;;;15.23;;
46815;SDS011;32787;53.316;8.670;2023-04-08T04:03:54;27.45;;;14.48;;
46815;SDS011;32787;53.316;8.670;2023-04-08T04:06:19;29.98;;;15.07;;
46815;SDS011;32787;53.316;8.670;2023-04-08T04:08:45;27.77;;;14.93;;
46815;SDS011;32787;53.316;8.670;2023-04-08T04:11:11;30.75;;;15.45;;
46815;SDS011;32787;53.316;8.670;2023-04-08T04:13:36;28.38;;;14.82;;
46815;SDS011;32787;53.316;8.670;2023-04-08T04:16:02;27.63;;;15.43;;
46815;SDS011;32787;53.316;8.670;2023-04-08T04:18:28;29.25;;;15.50;;
46815;SDS011;32787;53.316;8.670;2023-04-08T04:20:53;31.67;;;15.90;;
46815;SDS011;32787;53.316;8.670;2023-04-08T04:23:19;32.70;;;15.10;;
46815;SDS011;32787;53.316;8.670;2023-04-08T04:25:45;29.55;;;15.48;;
46815;SDS011;32787;53.316;8.670;2023-04-08T04:28:10;34.38;;;15.30;;
46815;SDS011;32787;53.316;8.670;2023-04-08T04:30:37;26.25;;;14.30;;
46815;SDS011;32787;53.316;8.670;2023-04-08T04:33:03;32.17;;;16.35;;
46815;SDS011;32787;53.316;8.670;2023-04-08T04:35:29;32.78;;;16.35;;
46815;SDS011;32787;53.316;8.670;2023-04-08T04:37:55;32.42;;;16.13;;
46815;SDS011;32787;53.316;8.670;2023-04-08T04:40:20;30.88;;;14.68;;
46815;SDS011;32787;53.316;8.670;2023-04-08T04:42:46;30.13;;;14.95;;
46815;SDS011;32787;53.316;8.670;2023-04-08T04:45:12;27.17;;;14.98;;
46815;SDS011;32787;53.316;8.670;2023-04-08T04:47:38;27.65;;;15.13;;
46815;SDS011;32787;53.316;8.670;2023-04-08T04:50:03;27.10;;;14.82;;
46815;SDS011;32787;53.316;8.670;2023-04-08T04:52:30;32.17;;;15.52;;
46815;SDS011;32787;53.316;8.670;2023-04-08T04:54:58;38.08;;;16.17;;
46815;SDS011;32787;53.316;8.670;2023-04-08T04:57:24;29.73;;;15.13;;
46815;SDS011;32787;53.316;8.670;2023-04-08T04:59:50;29.17;;;15.15;;
46815;SDS011;32787;53.316;8.670;2023-04-08T05:02:15;31.33;;;16.08;;
46815;SDS011;32787;53.316;8.670;2023-04-08T05:04:41;33.58;;;16.13;;
46815;SDS011;32787;53.316;8.670;2023-04-08T05:07:07;29.20;;;15.40;;
46815;SDS011;32787;53.316;8.670;2023-04-08T05:09:32;34.95;;;16.95;;
46815;SDS011;32787;53.316;8.670;2023-04-08T05:11:58;34.03;;;16.50;;
46815;SDS011;32787;53.316;8.670;2023-04-08T05:14:23;32.45;;;16.83;;
46815;SDS011;32787;53.316;8.670;2023-04-08T05:16:49;35.13;;;16.92;;
46815;SDS011;32787;53.316;8.670;2023-04-08T05:19:15;35.38;;;17.50;;
46815;SDS011;32787;53.316;8.670;2023-04-08T05:21:40;34.38;;;17.83;;
46815;SDS011;32787;53.316;8.670;2023-04-08T05:24:06;35.92;;;17.80;;
46815;SDS011;32787;53.316;8.670;2023-04-08T05:26:31;37.10;;;18.25;;
46815;SDS011;32787;53.316;8.670;2023-04-08T05:28:57;35.97;;;17.58;;
46815;SDS011;32787;53.316;8.670;2023-04-08T05:31:23;37.47;;;17.52;;
46815;SDS011;32787;53.316;8.670;2023-04-08T05:33:48;40.95;;;17.70;;
46815;SDS011;32787;53.316;8.670;2023-04-08T05:36:14;36.35;;;17.50;;
46815;SDS011;32787;53.316;8.670;2023-04-08T05:38:40;35.00;;;18.23;;
46815;SDS011;32787;53.316;8.670;2023-04-08T05:41:08;37.60;;;17.98;;
46815;SDS011;32787;53.316;8.670;2023-04-08T05:43:34;36.95;;;18.92;;
46815;SDS011;32787;53.316;8.670;2023-04-08T05:46:04;38.58;;;19.05;;
46815;SDS011;32787;53.316;8.670;2023-04-08T05:48:34;34.88;;;17.45;;
46815;SDS011;32787;53.316;8.670;2023-04-08T05:50:59;38.40;;;19.10;;
46815;SDS011;32787;53.316;8.670;2023-04-08T05:53:25;39.28;;;18.30;;
46815;SDS011;32787;53.316;8.670;2023-04-08T05:55:51;33.72;;;18.42;;
46815;SDS011;32787;53.316;8.670;2023-04-08T05:58:16;38.88;;;19.38;;
46815;SDS011;32787;53.316;8.670;2023-04-08T06:00:42;36.22;;;19.55;;
46815;SDS011;32787;53.316;8.670;2023-04-08T06:03:08;38.50;;;19.50;;
46815;SDS011;32787;53.316;8.670;2023-04-08T06:05:33;33.15;;;19.13;;
46815;SDS011;32787;53.316;8.670;2023-04-08T06:07:59;37.13;;;19.25;;
46815;SDS011;32787;53.316;8.670;2023-04-08T06:10:25;36.20;;;19.73;;
46815;SDS011;32787;53.316;8.670;2023-04-08T06:12:50;37.33;;;19.40;;
46815;SDS011;32787;53.316;8.670;2023-04-08T06:15:16;36.80;;;19.17;;
46815;SDS011;32787;53.316;8.670;2023-04-08T06:17:42;35.50;;;19.65;;
46815;SDS011;32787;53.316;8.670;2023-04-08T06:20:07;37.30;;;19.73;;
46815;SDS011;32787;53.316;8.670;2023-04-08T06:22:34;37.67;;;20.08;;
46815;SDS011;32787;53.316;8.670;2023-04-08T06:25:00;37.28;;;19.00;;
46815;SDS011;32787;53.316;8.670;2023-04-08T06:27:26;36.33;;;19.13;;
46815;SDS011;32787;53.316;8.670;2023-04-08T06:29:52;35.20;;;19.70;;
46815;SDS011;32787;53.316;8.670;2023-04-08T06:32:17;28.92;;;16.80;;
46815;SDS011;32787;53.316;8.670;2023-04-08T06:34:44;35.28;;;17.10;;
46815;SDS011;32787;53.316;8.670;2023-04-08T06:37:10;32.10;;;18.00;;
46815;SDS011;32787;53.316;8.670;2023-04-08T06:39:35;32.55;;;17.92;;
46815;SDS011;32787;53.316;8.670;2023-04-08T06:42:01;32.53;;;17.77;;
46815;SDS011;32787;53.316;8.670;2023-04-08T06:44:26;31.80;;;17.15;;
46815;SDS011;32787;53.316;8.670;2023-04-08T06:46:52;29.55;;;16.80;;
46815;SDS011;32787;53.316;8.670;2023-04-08T06:49:18;32.85;;;17.33;;
46815;SDS011;32787;53.316;8.670;2023-04-08T06:51:43;30.15;;;16.08;;
46815;SDS011;32787;53.316;8.670;2023-04-08T06:54:09;26.73;;;16.00;;
46815;SDS011;32787;53.316;8.670;2023-04-08T06:56:35;29.77;;;16.73;;
46815;SDS011;32787;53.316;8.670;2023-04-08T06:59:01;32.65;;;17.85;;
46815;SDS011;32787;53.316;8.670;2023-04-08T07:01:28;31.63;;;16.77;;
46815;SDS011;32787;53.316;8.670;2023-04-08T07:03:54;31.70;;;15.73;;
46815;SDS011;32787;53.316;8.670;2023-04-08T07:06:20;31.50;;;16.95;;
46815;SDS011;32787;53.316;8.670;2023-04-08T07:08:46;30.60;;;17.83;;
46815;SDS011;32787;53.316;8.670;2023-04-08T07:11:12;35.38;;;18.15;;
46815;SDS011;32787;53.316;8.670;2023-04-08T07:13:37;31.20;;;16.75;;
46815;SDS011;32787;53.316;8.670;2023-04-08T07:16:03;34.60;;;18.77;;
46815;SDS011;32787;53.316;8.670;2023-04-08T07:18:30;31.52;;;18.75;;
46815;SDS011;32787;53.316;8.670;2023-04-08T07:20:55;33.40;;;18.00;;
46815;SDS011;32787;53.316;8.670;2023-04-08T07:23:21;30.58;;;17.92;;
46815;SDS011;32787;53.316;8.670;2023-04-08T07:25:47;32.75;;;18.52;;
46815;SDS011;32787;53.316;8.670;2023-04-08T07:28:13;30.17;;;16.92;;
46815;SDS011;32787;53.316;8.670;2023-04-08T07:30:39;33.45;;;17.63;;
46815;SDS011;32787;53.316;8.670;2023-04-08T07:33:04;33.10;;;18.08;;
46815;SDS011;32787;53.316;8.670;2023-04-08T07:35:30;34.13;;;17.77;;
46815;SDS011;32787;53.316;8.670;2023-04-08T07:37:56;34.83;;;19.13;;
46815;SDS011;32787;53.316;8.670;2023-04-08T07:40:22;36.63;;;18.75;;
46815;SDS011;32787;53.316;8.670;2023-04-08T07:42:47;32.72;;;18.42;;
46815;SDS011;32787;53.316;8.670;2023-04-08T07:45:13;33.60;;;17.17;;
46815;SDS011;32787;53.316;8.670;2023-04-08T07:47:39;30.05;;;16.80;;
46815;SDS011;32787;53.316;8.670;2023-04-08T07:50:05;30.17;;;16.58;;
46815;SDS011;32787;53.316;8.670;2023-04-08T07:52:31;31.05;;;17.15;;
46815;SDS011;32787;53.316;8.670;2023-04-08T07:54:57;28.08;;;15.55;;
46815;SDS011;32787;53.316;8.670;2023-04-08T07:57:24;32.75;;;15.88;;
46815;SDS011;32787;53.316;8.670;2023-04-08T07:59:50;32.17;;;17.50;;
46815;SDS011;32787;53.316;8.670;2023-04-08T08:02:16;32.80;;;18.15;;
46815;SDS011;32787;53.316;8.670;2023-04-08T08:04:42;30.23;;;17.95;;
46815;SDS011;32787;53.316;8.670;2023-04-08T08:07:07;43.65;;;24.27;;
46815;SDS011;32787;53.316;8.670;2023-04-08T08:09:33;30.95;;;18.02;;
46815;SDS011;32787;53.316;8.670;2023-04-08T08:11:59;26.77;;;16.77;;
46815;SDS011;32787;53.316;8.670;2023-04-08T08:14:24;27.88;;;16.52;;
46815;SDS011;32787;53.316;8.670;2023-04-08T08:16:51;26.77;;;16.38;;
46815;SDS011;32787;53.316;8.670;2023-04-08T08:19:18;26.92;;;16.70;;
46815;SDS011;32787;53.316;8.670;2023-04-08T08:21:44;30.40;;;16.17;;
46815;SDS011;32787;53.316;8.670;2023-04-08T08:24:10;27.90;;;16.48;;
46815;SDS011;32787;53.316;8.670;2023-04-08T08:26:36;32.47;;;18.10;;
46815;SDS011;32787;53.316;8.670;2023-04-08T08:29:02;27.33;;;16.52;;
46815;SDS011;32787;53.316;8.670;2023-04-08T08:31:28;26.15;;;15.65;;
46815;SDS011;32787;53.316;8.670;2023-04-08T08:33:53;29.88;;;16.73;;
46815;SDS011;32787;53.316;8.670;2023-04-08T08:36:19;31.25;;;16.65;;
46815;SDS011;32787;53.316;8.670;2023-04-08T08:38:45;27.48;;;17.98;;
46815;SDS011;32787;53.316;8.670;2023-04-08T08:41:10;32.03;;;17.17;;
46815;SDS011;32787;53.316;8.670;2023-04-08T08:43:36;31.17;;;16.70;;
46815;SDS011;32787;53.316;8.670;2023-04-08T08:46:02;28.05;;;16.27;;
46815;SDS011;32787;53.316;8.670;2023-04-08T08:48:28;30.00;;;17.08;;
46815;SDS011;32787;53.316;8.670;2023-04-08T08:50:53;30.10;;;17.40;;
46815;SDS011;32787;53.316;8.670;2023-04-08T08:53:19;29.98;;;16.92;;
46815;SDS011;32787;53.316;8.670;2023-04-08T08:55:47;27.33;;;16.25;;
46815;SDS011;32787;53.316;8.670;2023-04-08T08:58:13;28.42;;;17.20;;
46815;SDS011;32787;53.316;8.670;2023-04-08T09:00:40;28.65;;;17.02;;
46815;SDS011;32787;53.316;8.670;2023-04-08T09:05:48;30.02;;;17.23;;
46815;SDS011;32787;53.316;8.670;2023-04-08T09:08:27;29.40;;;17.23;;
46815;SDS011;32787;53.316;8.670;2023-04-08T09:10:53;31.38;;;16.85;;
46815;SDS011;32787;53.316;8.670;2023-04-08T09:13:21;29.95;;;17.35;;
46815;SDS011;32787;53.316;8.670;2023-04-08T09:16:07;32.47;;;16.73;;
46815;SDS011;32787;53.316;8.670;2023-04-08T09:18:34;30.75;;;17.08;;
46815;SDS011;32787;53.316;8.670;2023-04-08T09:21:01;30.20;;;16.88;;
46815;SDS011;32787;53.316;8.670;2023-04-08T09:23:40;30.80;;;17.85;;
46815;SDS011;32787;53.316;8.670;2023-04-08T09:26:10;31.25;;;17.85;;
46815;SDS011;32787;53.316;8.670;2023-04-08T09:28:37;30.98;;;16.88;;
46815;SDS011;32787;53.316;8.670;2023-04-08T09:31:20;35.53;;;17.83;;
46815;SDS011;32787;53.316;8.670;2023-04-08T09:33:52;30.75;;;16.60;;
46815;SDS011;32787;53.316;8.670;2023-04-08T09:36:22;29.92;;;16.92;;
46815;SDS011;32787;53.316;8.670;2023-04-08T09:38:48;30.85;;;17.70;;
46815;SDS011;32787;53.316;8.670;2023-04-08T09:41:14;31.60;;;18.40;;
46815;SDS011;32787;53.316;8.670;2023-04-08T09:43:42;38.90;;;19.15;;
46815;SDS011;32787;53.316;8.670;2023-04-08T09:46:13;33.67;;;19.00;;
46815;SDS011;32787;53.316;8.670;2023-04-08T09:48:42;31.00;;;18.52;;
46815;SDS011;32787;53.316;8.670;2023-04-08T09:51:15;32.40;;;18.40;;
46815;SDS011;32787;53.316;8.670;2023-04-08T09:53:47;32.92;;;18.67;;
46815;SDS011;32787;53.316;8.670;2023-04-08T09:56:29;32.33;;;18.33;;
46815;SDS011;32787;53.316;8.670;2023-04-08T09:59:02;33.80;;;18.95;;
46815;SDS011;32787;53.316;8.670;2023-04-08T10:01:39;34.95;;;18.48;;
46815;SDS011;32787;53.316;8.670;2023-04-08T10:04:09;36.80;;;18.30;;
46815;SDS011;32787;53.316;8.670;2023-04-08T10:06:39;32.88;;;17.83;;
46815;SDS011;32787;53.316;8.670;2023-04-08T10:09:05;34.58;;;18.95;;
46815;SDS011;32787;53.316;8.670;2023-04-08T10:11:31;34.17;;;18.25;;
46815;SDS011;32787;53.316;8.670;2023-04-08T10:13:58;30.67;;;17.63;;
46815;SDS011;32787;53.316;8.670;2023-04-08T10:16:24;31.33;;;15.82;;
46815;SDS011;32787;53.316;8.670;2023-04-08T10:18:51;27.25;;;16.27;;
46815;SDS011;32787;53.316;8.670;2023-04-08T10:21:39;30.35;;;17.73;;
46815;SDS011;32787;53.316;8.670;2023-04-08T10:24:12;29.17;;;16.77;;
46815;SDS011;32787;53.316;8.670;2023-04-08T10:26:39;26.50;;;16.30;;
46815;SDS011;32787;53.316;8.670;2023-04-08T10:31:43;34.35;;;17.92;;
46815;SDS011;32787;53.316;8.670;2023-04-08T10:36:47;34.78;;;18.23;;
46815;SDS011;32787;53.316;8.670;2023-04-08T10:39:13;33.72;;;18.05;;
46815;SDS011;32787;53.316;8.670;2023-04-08T10:41:41;35.17;;;18.50;;
46815;SDS011;32787;53.316;8.670;2023-04-08T10:44:16;33.50;;;18.27;;
46815;SDS011;32787;53.316;8.670;2023-04-08T10:46:43;33.00;;;16.60;;
46815;SDS011;32787;53.316;8.670;2023-04-08T10:49:12;34.42;;;17.77;;
46815;SDS011;32787;53.316;8.670;2023-04-08T10:51:38;29.88;;;16.75;;
46815;SDS011;32787;53.316;8.670;2023-04-08T10:54:06;29.00;;;16.25;;
46815;SDS011;32787;53.316;8.670;2023-04-08T10:56:33;30.83;;;15.43;;
46815;SDS011;32787;53.316;8.670;2023-04-08T10:59:00;34.38;;;17.75;;
46815;SDS011;32787;53.316;8.670;2023-04-08T11:01:26;31.50;;;17.98;;
46815;SDS011;32787;53.316;8.670;2023-04-08T11:03:52;32.22;;;17.98;;
46815;SDS011;32787;53.316;8.670;2023-04-08T11:06:17;35.97;;;17.83;;
46815;SDS011;32787;53.316;8.670;2023-04-08T11:08:43;33.67;;;16.90;;
46815;SDS011;32787;53.316;8.670;2023-04-08T11:11:09;31.50;;;15.70;;
46815;SDS011;32787;53.316;8.670;2023-04-08T11:13:36;29.98;;;16.58;;
46815;SDS011;32787;53.316;8.670;2023-04-08T11:16:05;31.88;;;17.27;;
46815;SDS011;32787;53.316;8.670;2023-04-08T11:18:41;30.38;;;17.00;;
46815;SDS011;32787;53.316;8.670;2023-04-08T11:21:07;27.42;;;14.75;;
46815;SDS011;32787;53.316;8.670;2023-04-08T11:23:34;32.38;;;16.63;;
46815;SDS011;32787;53.316;8.670;2023-04-08T11:26:00;30.20;;;16.63;;
46815;SDS011;32787;53.316;8.670;2023-04-08T11:28:26;27.05;;;15.57;;
46815;SDS011;32787;53.316;8.670;2023-04-08T11:30:53;30.38;;;15.98;;
46815;SDS011;32787;53.316;8.670;2023-04-08T11:33:19;26.23;;;15.55;;
46815;SDS011;32787;53.316;8.670;2023-04-08T11:35:49;27.98;;;15.68;;
46815;SDS011;32787;53.316;8.670;2023-04-08T11:38:15;31.05;;;16.67;;
46815;SDS011;32787;53.316;8.670;2023-04-08T11:40:50;31.33;;;15.95;;
46815;SDS011;32787;53.316;8.670;2023-04-08T11:43:17;29.08;;;15.63;;
46815;SDS011;32787;53.316;8.670;2023-04-08T11:45:43;28.88;;;15.70;;
46815;SDS011;32787;53.316;8.670;2023-04-08T11:48:12;29.75;;;16.08;;
46815;SDS011;32787;53.316;8.670;2023-04-08T11:50:39;31.80;;;17.13;;
46815;SDS011;32787;53.316;8.670;2023-04-08T11:56:16;33.97;;;16.65;;
46815;SDS011;32787;53.316;8.670;2023-04-08T11:58:42;29.20;;;15.82;;
46815;SDS011;32787;53.316;8.670;2023-04-08T12:01:07;26.42;;;16.08;;
46815;SDS011;32787;53.316;8.670;2023-04-08T12:03:33;34.97;;;17.40;;
46815;SDS011;32787;53.316;8.670;2023-04-08T12:05:59;36.05;;;17.08;;
46815;SDS011;32787;53.316;8.670;2023-04-08T12:08:24;31.20;;;16.52;;
46815;SDS011;32787;53.316;8.670;2023-04-08T12:10:50;31.13;;;17.65;;
46815;SDS011;32787;53.316;8.670;2023-04-08T12:13:16;29.73;;;16.10;;
46815;SDS011;32787;53.316;8.670;2023-04-08T12:15:41;30.58;;;16.80;;
46815;SDS011;32787;53.316;8.670;2023-04-08T12:18:07;28.70;;;16.95;;
46815;SDS011;32787;53.316;8.670;2023-04-08T12:20:32;29.77;;;16.52;;
46815;SDS011;32787;53.316;8.670;2023-04-08T12:22:58;30.38;;;16.42;;
46815;SDS011;32787;53.316;8.670;2023-04-08T12:25:23;33.13;;;16.77;;
46815;SDS011;32787;53.316;8.670;2023-04-08T12:27:49;36.00;;;18.02;;
46815;SDS011;32787;53.316;8.670;2023-04-08T12:30:15;31.77;;;17.50;;
46815;SDS011;32787;53.316;8.670;2023-04-08T12:32:40;33.42;;;17.23;;
46815;SDS011;32787;53.316;8.670;2023-04-08T12:35:07;29.27;;;15.45;;
46815;SDS011;32787;53.316;8.670;2023-04-08T12:37:32;30.17;;;16.23;;
46815;SDS011;32787;53.316;8.670;2023-04-08T12:39:58;36.88;;;17.83;;
46815;SDS011;32787;53.316;8.670;2023-04-08T12:42:23;29.63;;;17.10;;
46815;SDS011;32787;53.316;8.670;2023-04-08T12:44:49;28.88;;;15.82;;
46815;SDS011;32787;53.316;8.670;2023-04-08T12:47:15;30.50;;;16.52;;
46815;SDS011;32787;53.316;8.670;2023-04-08T12:49:41;31.85;;;16.95;;
46815;SDS011;32787;53.316;8.670;2023-04-08T12:52:06;26.65;;;15.88;;
46815;SDS011;32787;53.316;8.670;2023-04-08T12:54:32;27.38;;;15.93;;
46815;SDS011;32787;53.316;8.670;2023-04-08T12:56:58;26.13;;;15.32;;
46815;SDS011;32787;53.316;8.670;2023-04-08T12:59:23;30.05;;;16.27;;
46815;SDS011;32787;53.316;8.670;2023-04-08T13:01:49;27.60;;;15.07;;
46815;SDS011;32787;53.316;8.670;2023-04-08T13:04:14;26.80;;;15.77;;
46815;SDS011;32787;53.316;8.670;2023-04-08T13:06:41;29.90;;;16.60;;
46815;SDS011;32787;53.316;8.670;2023-04-08T13:09:06;28.00;;;15.85;;
46815;SDS011;32787;53.316;8.670;2023-04-08T13:11:32;24.10;;;15.30;;
46815;SDS011;32787;53.316;8.670;2023-04-08T13:13:58;26.98;;;16.48;;
46815;SDS011;32787;53.316;8.670;2023-04-08T13:16:24;29.42;;;16.15;;
46815;SDS011;32787;53.316;8.670;2023-04-08T13:18:49;28.65;;;16.40;;
46815;SDS011;32787;53.316;8.670;2023-04-08T13:21:16;27.85;;;15.95;;
46815;SDS011;32787;53.316;8.670;2023-04-08T13:23:42;28.20;;;16.90;;
46815;SDS011;32787;53.316;8.670;2023-04-08T13:26:07;27.92;;;15.75;;
46815;SDS011;32787;53.316;8.670;2023-04-08T13:28:33;26.98;;;16.05;;
46815;SDS011;32787;53.316;8.670;2023-04-08T13:30:58;26.40;;;16.38;;
46815;SDS011;32787;53.316;8.670;2023-04-08T13:33:24;31.35;;;16.23;;
46815;SDS011;32787;53.316;8.670;2023-04-08T13:35:50;29.38;;;16.92;;
46815;SDS011;32787;53.316;8.670;2023-04-08T13:38:15;27.17;;;16.55;;
46815;SDS011;32787;53.316;8.670;2023-04-08T13:40:41;30.75;;;16.90;;
46815;SDS011;32787;53.316;8.670;2023-04-08T13:43:07;27.77;;;15.48;;
46815;SDS011;32787;53.316;8.670;2023-04-08T13:45:33;25.92;;;16.00;;
46815;SDS011;32787;53.316;8.670;2023-04-08T13:47:59;28.52;;;16.67;;
46815;SDS011;32787;53.316;8.670;2023-04-08T13:50:25;29.02;;;16.45;;
46815;SDS011;32787;53.316;8.670;2023-04-08T13:52:51;29.13;;;16.83;;
46815;SDS011;32787;53.316;8.670;2023-04-08T13:55:16;27.05;;;16.77;;
46815;SDS011;32787;53.316;8.670;2023-04-08T13:57:42;29.20;;;18.15;;
46815;SDS011;32787;53.316;8.670;2023-04-08T14:00:08;31.38;;;18.55;;
46815;SDS011;32787;53.316;8.670;2023-04-08T14:02:34;31.15;;;17.60;;
46815;SDS011;32787;53.316;8.670;2023-04-08T14:05:00;28.55;;;18.10;;
46815;SDS011;32787;53.316;8.670;2023-04-08T14:07:26;28.15;;;18.25;;
46815;SDS011;32787;53.316;8.670;2023-04-08T14:09:51;31.85;;;18.80;;
46815;SDS011;32787;53.316;8.670;2023-04-08T14:12:17;27.63;;;17.67;;
46815;SDS011;32787;53.316;8.670;2023-04-08T14:14:42;30.85;;;18.80;;
46815;SDS011;32787;53.316;8.670;2023-04-08T14:17:08;30.13;;;18.48;;
46815;SDS011;32787;53.316;8.670;2023-04-08T14:19:33;29.00;;;18.40;;
46815;SDS011;32787;53.316;8.670;2023-04-08T14:21:59;29.45;;;18.08;;
46815;SDS011;32787;53.316;8.670;2023-04-08T14:24:25;28.77;;;18.27;;
46815;SDS011;32787;53.316;8.670;2023-04-08T14:26:51;32.97;;;18.88;;
46815;SDS011;32787;53.316;8.670;2023-04-08T14:29:16;32.63;;;19.17;;
46815;SDS011;32787;53.316;8.670;2023-04-08T14:31:42;29.90;;;19.45;;
46815;SDS011;32787;53.316;8.670;2023-04-08T14:34:08;30.15;;;18.77;;